Time;durP1;ratioP1;P1;durP2;ratioP2;P2;SDS_P1;SDS_P2;PMS_P1;PMS_P2;Temp;Humidity;BMP_temperature;BMP_pressure;BME280_temperature;BME280_humidity;BME280_pressure;Samples;Min_cycle;Max_cycle;Signal;HPM_P1;HPM_P2
2024/01/23 00:02:07;;;;;;;66.72;36.00;;;1.50;99.90;;;;;;5091330;28;20089;-72
2024/01/23 00:04:33;;;;;;;68.85;38.83;;;1.50;99.90;;;;;;5092274;28;20127;-73
2024/01/23 00:06:59;;;;;;;67.05;39.47;;;1.40;99.90;;;;;;5092388;28;20298;-72
2024/01/23 00:09:27;;;;;;;66.22;37.53;;;1.50;99.90;;;;;;5091522;28;20032;-72
2024/01/23 00:11:52;;;;;;;68.40;38.25;;;1.40;99.90;;;;;;5091965;28;20314;-72
2024/01/23 00:14:18;;;;;;;67.63;37.35;;;1.40;99.90;;;;;;5091836;28;20028;-73
2024/01/23 00:16:44;;;;;;;61.92;35.25;;;1.40;99.90;;;;;;5090758;28;20035;-72
2024/01/23 00:19:09;;;;;;;60.53;34.65;;;1.40;99.90;;;;;;5092140;28;20016;-72
2024/01/23 00:21:35;;;;;;;56.25;32.05;;;1.40;99.90;;;;;;5091930;28;20032;-73
2024/01/23 00:24:00;;;;;;;54.28;30.60;;;1.50;99.90;;;;;;5094087;28;20036;-73
2024/01/23 00:26:26;;;;;;;54.30;30.95;;;1.40;99.90;;;;;;5091643;28;20365;-73
2024/01/23 00:28:52;;;;;;;53.67;30.05;;;1.40;99.90;;;;;;5092474;28;20016;-73
2024/01/23 00:31:17;;;;;;;50.05;28.90;;;1.40;99.90;;;;;;5091340;28;20028;-74
2024/01/23 00:33:43;;;;;;;51.22;31.35;;;1.40;99.90;;;;;;5092055;28;20492;-73
2024/01/23 00:36:08;;;;;;;53.20;30.55;;;1.40;99.90;;;;;;5091936;28;20028;-73
2024/01/23 00:38:34;;;;;;;54.08;30.23;;;1.40;99.90;;;;;;5091532;28;20352;-73
2024/01/23 00:40:59;;;;;;;50.55;29.17;;;1.40;99.90;;;;;;5091313;28;20461;-72
2024/01/23 00:43:27;;;;;;;53.60;28.20;;;1.40;99.90;;;;;;5091022;28;20035;-73
2024/01/23 00:45:53;;;;;;;44.63;26.52;;;1.40;99.90;;;;;;5091608;28;20490;-73
2024/01/23 00:48:18;;;;;;;48.97;28.55;;;1.40;99.90;;;;;;5091612;28;20024;-76
2024/01/23 00:50:44;;;;;;;49.17;29.02;;;1.50;99.90;;;;;;5091709;28;20036;-73
2024/01/23 00:53:09;;;;;;;49.65;28.58;;;1.50;99.90;;;;;;5089980;28;20051;-73
2024/01/23 00:55:35;;;;;;;48.28;28.10;;;1.50;99.90;;;;;;5089951;28;20035;-73
2024/01/23 00:58:01;;;;;;;52.80;30.02;;;1.50;99.90;;;;;;5091419;28;20407;-73
2024/01/23 01:00:26;;;;;;;49.35;29.02;;;1.50;99.90;;;;;;5091297;28;20059;-72
2024/01/23 01:02:52;;;;;;;49.55;29.70;;;1.50;99.90;;;;;;5091677;28;20024;-72
2024/01/23 01:05:17;;;;;;;52.95;29.80;;;1.40;99.90;;;;;;5091204;28;20024;-73
2024/01/23 01:07:43;;;;;;;50.47;30.92;;;1.40;99.90;;;;;;5089846;28;20048;-72
2024/01/23 01:10:10;;;;;;;50.40;30.75;;;1.40;99.90;;;;;;5090566;28;20020;-73
2024/01/23 01:12:35;;;;;;;50.50;30.75;;;1.40;99.90;;;;;;5091499;28;20032;-73
2024/01/23 01:15:02;;;;;;;58.25;33.38;;;1.40;99.90;;;;;;5091107;28;20079;-73
2024/01/23 01:17:28;;;;;;;55.40;31.83;;;1.40;99.90;;;;;;5091280;28;20020;-73
2024/01/23 01:19:54;;;;;;;52.15;32.03;;;1.40;99.90;;;;;;5091598;28;20016;-73
2024/01/23 01:22:20;;;;;;;50.22;31.13;;;1.40;99.90;;;;;;5091798;28;20025;-73
2024/01/23 01:24:46;;;;;;;58.90;33.88;;;1.40;99.90;;;;;;5094804;28;20028;-73
2024/01/23 01:27:11;;;;;;;53.80;31.55;;;1.40;99.90;;;;;;5095022;28;20111;-72
2024/01/23 01:29:37;;;;;;;57.63;33.28;;;1.50;99.90;;;;;;5094642;28;20502;-72
2024/01/23 01:32:03;;;;;;;59.20;35.20;;;1.40;99.90;;;;;;5095630;28;20111;-73
2024/01/23 01:34:29;;;;;;;57.20;33.58;;;1.50;99.90;;;;;;5094725;28;20039;-72
2024/01/23 01:36:54;;;;;;;62.28;35.30;;;1.40;99.90;;;;;;5095301;28;20020;-72
2024/01/23 01:39:20;;;;;;;56.45;34.60;;;1.40;99.90;;;;;;5093712;28;20032;-73
2024/01/23 01:41:55;;;;;;;58.35;35.70;;;1.40;99.90;;;;;;5094743;28;20042;-72
2024/01/23 01:44:21;;;;;;;59.60;35.83;;;1.40;99.90;;;;;;5095070;28;20028;-72
2024/01/23 01:46:48;;;;;;;64.35;37.13;;;1.40;99.90;;;;;;5094634;28;20449;-72
2024/01/23 01:49:16;;;;;;;61.15;36.05;;;1.40;99.90;;;;;;5095294;28;20033;-73
2024/01/23 01:51:42;;;;;;;60.65;36.22;;;1.40;99.90;;;;;;5094306;28;20433;-73
2024/01/23 01:54:08;;;;;;;63.53;38.08;;;1.30;99.90;;;;;;5094720;28;20038;-73
2024/01/23 01:56:34;;;;;;;63.38;36.63;;;1.30;99.90;;;;;;5093914;28;20020;-73
2024/01/23 01:59:00;;;;;;;65.38;38.55;;;1.30;99.90;;;;;;5095104;28;20075;-73
2024/01/23 02:01:27;;;;;;;63.13;37.92;;;1.30;99.90;;;;;;5094370;28;20480;-72
2024/01/23 02:03:56;;;;;;;63.95;38.40;;;1.30;99.90;;;;;;5094605;28;20036;-73
2024/01/23 02:06:23;;;;;;;63.92;38.10;;;1.30;99.90;;;;;;5094819;28;20031;-73
2024/01/23 02:08:50;;;;;;;67.43;38.88;;;1.30;99.90;;;;;;5094211;28;20024;-73
2024/01/23 02:11:15;;;;;;;66.95;38.83;;;1.30;99.90;;;;;;5094575;28;20031;-72
2024/01/23 02:13:42;;;;;;;71.88;39.33;;;1.30;99.90;;;;;;5093680;28;20028;-72
2024/01/23 02:16:09;;;;;;;66.78;39.28;;;1.30;99.90;;;;;;5094249;28;20107;-73
2024/01/23 02:18:34;;;;;;;65.85;39.50;;;1.30;99.90;;;;;;5095576;28;20036;-72
2024/01/23 02:21:00;;;;;;;64.65;39.38;;;1.30;99.90;;;;;;5114951;28;20064;-73
2024/01/23 02:23:29;;;;;;;71.53;41.00;;;1.30;99.90;;;;;;5115041;28;20129;-73
2024/01/23 02:25:55;;;;;;;65.05;39.67;;;1.30;99.90;;;;;;5095303;28;20524;-72
2024/01/23 02:28:21;;;;;;;66.07;39.47;;;1.30;99.90;;;;;;5092964;28;20392;-73
2024/01/23 02:30:47;;;;;;;72.22;40.92;;;1.30;99.90;;;;;;5093885;28;20301;-73
2024/01/23 02:33:13;;;;;;;72.25;42.22;;;1.30;99.90;;;;;;5093664;28;20077;-73
2024/01/23 02:35:39;;;;;;;72.93;42.83;;;1.30;99.90;;;;;;5093674;28;20035;-72
2024/01/23 02:38:05;;;;;;;74.57;41.88;;;1.30;99.90;;;;;;5094109;28;20027;-72
2024/01/23 02:40:31;;;;;;;77.00;42.67;;;1.30;99.90;;;;;;5092288;28;20140;-73
2024/01/23 02:42:56;;;;;;;72.65;43.42;;;1.20;99.90;;;;;;5092880;28;20032;-72
2024/01/23 02:45:22;;;;;;;71.50;40.90;;;1.30;99.90;;;;;;5093921;28;20066;-72
2024/01/23 02:47:48;;;;;;;73.28;42.63;;;1.30;99.90;;;;;;5093503;28;20028;-73
2024/01/23 02:50:13;;;;;;;71.35;42.13;;;1.30;99.90;;;;;;5094012;28;20027;-72
2024/01/23 02:52:39;;;;;;;72.53;41.55;;;1.30;99.90;;;;;;5093517;28;20537;-73
2024/01/23 02:55:05;;;;;;;79.22;45.28;;;1.30;99.90;;;;;;5093894;28;20071;-73
2024/01/23 02:57:30;;;;;;;79.57;43.22;;;1.20;99.90;;;;;;5092080;28;20031;-73
2024/01/23 02:59:56;;;;;;;75.18;44.90;;;1.20;99.90;;;;;;5092169;28;20048;-73
2024/01/23 03:02:22;;;;;;;75.25;42.83;;;1.20;99.90;;;;;;5093648;28;20027;-72
2024/01/23 03:04:48;;;;;;;77.45;44.30;;;1.20;99.90;;;;;;5092899;28;20107;-73
2024/01/23 03:07:15;;;;;;;77.63;43.63;;;1.20;99.90;;;;;;5093688;28;20032;-72
2024/01/23 03:09:41;;;;;;;73.03;40.78;;;1.20;99.90;;;;;;5093150;28;20031;-72
2024/01/23 03:12:22;;;;;;;74.63;43.95;;;1.20;99.90;;;;;;5093181;28;20374;-72
2024/01/23 03:14:48;;;;;;;84.95;45.22;;;1.20;99.90;;;;;;5091672;28;20379;-74
2024/01/23 03:17:16;;;;;;;80.70;45.08;;;1.10;99.90;;;;;;5093384;28;20059;-72
2024/01/23 03:19:42;;;;;;;78.80;45.10;;;1.20;99.90;;;;;;5092860;28;20024;-72
2024/01/23 03:22:08;;;;;;;80.45;44.00;;;1.10;99.90;;;;;;5092569;28;20023;-72
2024/01/23 03:24:37;;;;;;;81.10;46.15;;;1.10;99.90;;;;;;5093231;28;20031;-74
2024/01/23 03:27:04;;;;;;;86.35;45.85;;;1.10;99.90;;;;;;5093117;28;20081;-73
2024/01/23 03:29:38;;;;;;;77.85;43.88;;;1.10;99.90;;;;;;5093019;28;20032;-73
2024/01/23 03:32:04;;;;;;;82.25;46.42;;;1.10;99.90;;;;;;5092843;28;20027;-73
2024/01/23 03:34:31;;;;;;;79.40;46.13;;;1.10;99.90;;;;;;5092929;28;20035;-72
2024/01/23 03:36:57;;;;;;;83.03;46.60;;;1.10;99.90;;;;;;5092897;28;20036;-73
2024/01/23 03:39:23;;;;;;;81.55;46.08;;;1.00;99.90;;;;;;5092564;28;20107;-72
2024/01/23 03:41:48;;;;;;;87.05;46.80;;;1.00;99.90;;;;;;5092292;28;20031;-73
2024/01/23 03:44:14;;;;;;;83.80;43.75;;;1.00;99.90;;;;;;5092745;28;20384;-72
2024/01/23 03:46:40;;;;;;;79.55;44.58;;;1.00;99.90;;;;;;5091839;28;20056;-72
2024/01/23 03:49:05;;;;;;;83.53;46.13;;;1.00;99.90;;;;;;5091327;28;20354;-73
2024/01/23 03:51:31;;;;;;;78.90;45.00;;;1.00;99.90;;;;;;5091259;28;20024;-73
2024/01/23 03:53:56;;;;;;;83.57;44.03;;;1.00;99.90;;;;;;5091817;28;20107;-73
2024/01/23 03:56:22;;;;;;;75.18;45.35;;;1.00;99.90;;;;;;5091332;28;20101;-73
2024/01/23 03:58:48;;;;;;;81.82;45.83;;;1.00;99.90;;;;;;5090421;28;20024;-73
2024/01/23 04:01:13;;;;;;;83.22;46.13;;;1.00;99.90;;;;;;5092022;28;20392;-72
2024/01/23 04:03:39;;;;;;;80.32;46.95;;;0.90;99.90;;;;;;5092050;28;20089;-73
2024/01/23 04:06:05;;;;;;;86.05;47.10;;;0.90;99.90;;;;;;5092496;28;20476;-73
2024/01/23 04:08:30;;;;;;;79.97;45.75;;;0.90;99.90;;;;;;5092034;28;20110;-72
2024/01/23 04:10:57;;;;;;;86.72;47.85;;;0.90;99.90;;;;;;5091819;28;20034;-73
2024/01/23 04:13:23;;;;;;;83.55;47.58;;;0.90;99.90;;;;;;5092176;28;20024;-72
2024/01/23 04:15:49;;;;;;;80.43;45.30;;;0.90;99.90;;;;;;5091870;28;20081;-73
2024/01/23 04:18:14;;;;;;;86.90;47.03;;;0.80;99.90;;;;;;5091982;28;20028;-73
2024/01/23 04:20:40;;;;;;;87.78;49.42;;;0.80;99.90;;;;;;5092398;28;20034;-72
2024/01/23 04:23:06;;;;;;;87.82;49.15;;;0.80;99.90;;;;;;5092370;28;20028;-73
2024/01/23 04:25:31;;;;;;;85.28;48.47;;;0.80;99.90;;;;;;5093562;28;20035;-72
2024/01/23 04:27:57;;;;;;;86.32;48.47;;;0.80;99.90;;;;;;5094239;28;20093;-72
2024/01/23 04:30:25;;;;;;;87.53;47.75;;;0.80;99.90;;;;;;5092308;28;20421;-72
2024/01/23 04:32:50;;;;;;;87.53;46.92;;;0.80;99.90;;;;;;5091888;28;20028;-73
2024/01/23 04:35:16;;;;;;;87.47;46.97;;;0.80;99.90;;;;;;5091949;28;20028;-72
2024/01/23 04:37:42;;;;;;;90.85;48.90;;;0.70;99.90;;;;;;5091543;28;20024;-72
2024/01/23 04:40:08;;;;;;;91.55;49.78;;;0.70;99.90;;;;;;5092006;28;20039;-72
2024/01/23 04:42:35;;;;;;;86.95;49.60;;;0.70;99.90;;;;;;5091908;28;20024;-72
2024/01/23 04:45:01;;;;;;;87.60;47.00;;;0.70;99.90;;;;;;5091321;28;20453;-72
2024/01/23 04:47:26;;;;;;;91.35;48.22;;;0.70;99.90;;;;;;5091803;28;20025;-73
2024/01/23 04:49:53;;;;;;;85.80;47.58;;;0.70;99.90;;;;;;5091392;28;20423;-72
2024/01/23 04:52:18;;;;;;;84.32;47.42;;;0.70;99.90;;;;;;5091699;28;20035;-72
2024/01/23 04:54:44;;;;;;;83.95;47.45;;;0.70;99.90;;;;;;5091040;28;20036;-73
2024/01/23 04:57:11;;;;;;;91.22;50.03;;;0.70;99.90;;;;;;5091914;28;20322;-72
2024/01/23 04:59:36;;;;;;;86.75;49.67;;;0.70;99.90;;;;;;5095538;28;20112;-73
2024/01/23 05:02:04;;;;;;;86.60;49.10;;;0.70;99.90;;;;;;5095647;28;20432;-72
2024/01/23 05:04:29;;;;;;;93.85;50.75;;;0.70;99.90;;;;;;5095768;28;20417;-72
2024/01/23 05:06:55;;;;;;;92.25;51.28;;;0.80;99.90;;;;;;5095488;28;20043;-71
2024/01/23 05:09:21;;;;;;;98.20;53.00;;;0.80;99.90;;;;;;5095771;28;20028;-72
2024/01/23 05:11:46;;;;;;;92.47;51.45;;;0.80;99.90;;;;;;5093942;28;20028;-72
2024/01/23 05:14:13;;;;;;;89.88;47.65;;;0.80;99.90;;;;;;5095411;28;20036;-73
2024/01/23 05:16:38;;;;;;;88.32;50.28;;;0.80;99.90;;;;;;5095621;28;20493;-73
2024/01/23 05:19:04;;;;;;;90.85;49.97;;;0.80;99.90;;;;;;5093448;28;20020;-73
2024/01/23 05:21:30;;;;;;;95.68;52.75;;;0.80;99.90;;;;;;5095261;28;20465;-73
2024/01/23 05:23:55;;;;;;;91.10;49.90;;;0.80;99.90;;;;;;5094744;28;20058;-72
2024/01/23 05:26:21;;;;;;;89.75;51.05;;;0.80;99.90;;;;;;5095195;28;20179;-73
2024/01/23 05:28:46;;;;;;;92.85;50.42;;;0.90;99.90;;;;;;5094833;28;20032;-74
2024/01/23 05:31:12;;;;;;;92.05;51.53;;;0.90;99.90;;;;;;5095464;28;20058;-74
2024/01/23 05:33:37;;;;;;;92.28;51.75;;;0.90;99.90;;;;;;5095194;28;20065;-72
2024/01/23 05:36:04;;;;;;;94.93;51.78;;;1.00;99.90;;;;;;5095118;28;20024;-72
2024/01/23 05:38:30;;;;;;;90.78;50.72;;;1.00;99.90;;;;;;5095333;28;20024;-73
2024/01/23 05:40:56;;;;;;;93.05;51.67;;;1.00;99.90;;;;;;5094742;28;20368;-73
2024/01/23 05:43:22;;;;;;;87.97;51.30;;;1.00;99.90;;;;;;5076876;28;20088;-73
2024/01/23 05:45:49;;;;;;;89.45;48.97;;;1.00;99.90;;;;;;5094645;28;20043;-73
2024/01/23 05:48:15;;;;;;;89.80;52.03;;;1.10;99.90;;;;;;5095173;28;20388;-79
2024/01/23 05:50:41;;;;;;;90.75;48.72;;;1.10;99.90;;;;;;5094596;28;20024;-74
2024/01/23 05:53:06;;;;;;;87.53;48.25;;;1.20;99.90;;;;;;5094464;28;20028;-74
2024/01/23 05:55:32;;;;;;;76.82;44.85;;;1.20;99.90;;;;;;5095051;28;20036;-74
2024/01/23 05:57:58;;;;;;;78.03;44.08;;;1.20;99.90;;;;;;5094679;28;20024;-74
2024/01/23 06:00:24;;;;;;;75.50;41.72;;;1.30;99.90;;;;;;5094717;28;20052;-75
2024/01/23 06:02:49;;;;;;;65.60;36.40;;;1.40;99.90;;;;;;5094730;28;20102;-73
2024/01/23 06:05:15;;;;;;;60.05;33.53;;;1.50;99.90;;;;;;5095020;28;20066;-74
2024/01/23 06:07:45;;;;;;;58.55;31.42;;;1.70;99.90;;;;;;5094903;28;20062;-73
2024/01/23 06:10:10;;;;;;;52.70;29.45;;;1.90;99.90;;;;;;5092708;28;20031;-74
2024/01/23 06:12:36;;;;;;;51.65;29.10;;;2.10;99.90;;;;;;5095021;28;20020;-75
2024/01/23 06:15:02;;;;;;;47.40;26.67;;;2.20;99.90;;;;;;5094105;28;20461;-74
2024/01/23 06:17:28;;;;;;;50.88;28.30;;;2.40;99.90;;;;;;5094581;28;20028;-75
2024/01/23 06:19:54;;;;;;;43.47;22.20;;;2.50;99.90;;;;;;5094392;28;20028;-75
2024/01/23 06:22:19;;;;;;;41.97;23.00;;;2.70;99.90;;;;;;5095555;28;20024;-74
2024/01/23 06:25:05;;;;;;;34.92;20.50;;;2.90;99.90;;;;;;5094387;28;20032;-75
2024/01/23 06:27:31;;;;;;;34.42;18.42;;;3.10;99.90;;;;;;5093642;28;20035;-77
2024/01/23 06:29:57;;;;;;;32.08;18.27;;;3.30;99.90;;;;;;5094342;28;20078;-74
2024/01/23 06:32:23;;;;;;;30.27;17.13;;;3.40;99.90;;;;;;5094279;28;20016;-74
2024/01/23 06:34:49;;;;;;;24.58;14.15;;;3.50;99.90;;;;;;5093665;28;20032;-77
2024/01/23 06:37:15;;;;;;;22.42;13.77;;;3.60;99.90;;;;;;5093985;28;20081;-74
2024/01/23 06:39:40;;;;;;;25.15;12.88;;;3.70;99.90;;;;;;5092689;28;20059;-75
2024/01/23 06:42:06;;;;;;;18.33;11.10;;;3.80;99.90;;;;;;5093418;28;20031;-74
2024/01/23 06:44:32;;;;;;;18.35;10.38;;;3.90;99.90;;;;;;5093762;28;20081;-74
2024/01/23 06:46:57;;;;;;;18.20;9.45;;;4.00;99.90;;;;;;5092293;28;20473;-75
2024/01/23 06:49:23;;;;;;;17.63;9.13;;;4.10;99.90;;;;;;5093882;28;20101;-74
2024/01/23 06:51:48;;;;;;;13.20;8.63;;;4.20;99.90;;;;;;5094144;28;20054;-74
2024/01/23 06:54:15;;;;;;;14.27;8.05;;;4.30;99.90;;;;;;5093708;28;20131;-74
2024/01/23 06:56:41;;;;;;;15.60;7.80;;;4.40;99.90;;;;;;5094258;28;20073;-74
2024/01/23 06:59:07;;;;;;;12.10;7.63;;;4.50;99.90;;;;;;5093148;28;20024;-75
2024/01/23 07:01:33;;;;;;;10.98;6.97;;;4.50;99.90;;;;;;5093761;28;20055;-73
2024/01/23 07:03:58;;;;;;;13.70;6.53;;;4.60;99.90;;;;;;5091888;28;20074;-73
2024/01/23 07:06:24;;;;;;;14.05;6.25;;;4.60;99.90;;;;;;5093951;28;20027;-75
2024/01/23 07:08:49;;;;;;;13.38;5.93;;;4.60;99.90;;;;;;5093458;28;20127;-74
2024/01/23 07:11:15;;;;;;;12.18;6.13;;;4.70;99.90;;;;;;5092986;28;20058;-74
2024/01/23 07:13:41;;;;;;;10.23;6.38;;;4.70;99.90;;;;;;5093305;28;20024;-74
2024/01/23 07:16:07;;;;;;;15.75;6.60;;;4.70;99.90;;;;;;5092988;28;20028;-74
2024/01/23 07:18:32;;;;;;;9.23;5.03;;;4.80;99.90;;;;;;5091946;28;20053;-74
2024/01/23 07:20:59;;;;;;;10.63;5.15;;;4.80;99.90;;;;;;5091691;28;20081;-74
2024/01/23 07:23:25;;;;;;;9.43;5.18;;;4.80;99.90;;;;;;5092827;28;20094;-75
2024/01/23 07:25:50;;;;;;;8.93;4.82;;;4.80;99.90;;;;;;5091332;28;20031;-74
2024/01/23 07:28:16;;;;;;;10.10;3.92;;;4.90;99.90;;;;;;5092720;28;20020;-74
2024/01/23 07:30:41;;;;;;;11.07;4.20;;;5.00;99.90;;;;;;5093367;28;20032;-75
2024/01/23 07:33:09;;;;;;;6.57;3.83;;;5.10;99.90;;;;;;5092760;28;20115;-75
2024/01/23 07:35:35;;;;;;;8.80;3.70;;;5.20;99.90;;;;;;5093025;28;20043;-75
2024/01/23 07:38:00;;;;;;;6.85;3.65;;;5.30;99.90;;;;;;5092553;28;20020;-74
2024/01/23 07:40:26;;;;;;;6.13;3.58;;;5.40;99.90;;;;;;5091398;28;20073;-74
2024/01/23 07:42:52;;;;;;;5.25;3.03;;;5.50;99.90;;;;;;5092571;28;20477;-74
2024/01/23 07:45:18;;;;;;;4.80;2.75;;;5.60;99.90;;;;;;5091254;28;20024;-74
2024/01/23 07:47:43;;;;;;;5.35;2.50;;;5.70;99.90;;;;;;5093268;28;20154;-74
2024/01/23 07:50:11;;;;;;;3.88;2.10;;;5.80;99.90;;;;;;5092097;28;20019;-74
2024/01/23 07:52:37;;;;;;;7.32;1.92;;;5.90;99.90;;;;;;5091433;28;20024;-74
2024/01/23 07:55:03;;;;;;;7.38;2.20;;;6.00;99.90;;;;;;5091883;28;20076;-74
2024/01/23 07:57:28;;;;;;;4.95;2.00;;;6.10;99.90;;;;;;5092540;28;20016;-74
2024/01/23 07:59:54;;;;;;;5.13;1.98;;;6.20;99.90;;;;;;5091789;28;20054;-75
2024/01/23 08:02:20;;;;;;;5.50;1.77;;;6.30;99.90;;;;;;5092765;28;20028;-74
2024/01/23 08:04:45;;;;;;;1.83;1.10;;;6.50;99.90;;;;;;5092447;28;20106;-74
2024/01/23 08:07:11;;;;;;;4.80;1.50;;;6.60;99.90;;;;;;5091831;28;20024;-74
2024/01/23 08:09:36;;;;;;;2.45;1.50;;;6.70;99.90;;;;;;5092201;28;20036;-74
2024/01/23 08:12:05;;;;;;;3.00;1.80;;;6.80;99.90;;;;;;5091882;28;20023;-74
2024/01/23 08:14:30;;;;;;;3.20;1.85;;;6.80;99.90;;;;;;5091061;28;20032;-73
2024/01/23 08:16:56;;;;;;;4.68;2.10;;;6.90;99.90;;;;;;5092167;28;20467;-76
2024/01/23 08:19:21;;;;;;;4.18;1.67;;;6.90;99.90;;;;;;5097678;28;20043;-73
2024/01/23 08:21:49;;;;;;;4.15;1.55;;;7.00;99.90;;;;;;5112387;28;20487;-74
2024/01/23 08:24:15;;;;;;;2.97;1.77;;;7.00;99.90;;;;;;5112084;28;20116;-74
2024/01/23 08:26:41;;;;;;;3.35;1.60;;;7.10;99.90;;;;;;5112514;28;20117;-74
2024/01/23 08:29:07;;;;;;;4.10;1.65;;;7.10;99.90;;;;;;5110682;28;20051;-74
2024/01/23 08:31:33;;;;;;;3.28;1.88;;;7.20;99.90;;;;;;5111876;28;20533;-74
2024/01/23 08:33:59;;;;;;;2.90;1.90;;;7.20;99.90;;;;;;5111558;28;20510;-74
2024/01/23 08:36:24;;;;;;;5.40;2.03;;;7.30;99.90;;;;;;5112146;28;20126;-74
2024/01/23 08:38:50;;;;;;;4.20;2.50;;;7.40;99.90;;;;;;5112318;28;20026;-75
2024/01/23 08:41:16;;;;;;;3.08;1.90;;;7.40;99.90;;;;;;5111955;28;20073;-74
2024/01/23 08:43:41;;;;;;;4.43;2.00;;;7.50;99.90;;;;;;5112232;28;20144;-74
2024/01/23 08:46:07;;;;;;;2.75;1.88;;;7.50;99.90;;;;;;5110560;28;20165;-74
2024/01/23 08:48:32;;;;;;;4.63;1.98;;;7.50;99.90;;;;;;5112195;28;20364;-73
2024/01/23 08:50:58;;;;;;;5.82;1.80;;;7.50;99.90;;;;;;5112034;28;20034;-77
2024/01/23 08:53:24;;;;;;;3.60;1.95;;;7.50;99.90;;;;;;5112342;28;20031;-74
2024/01/23 08:55:49;;;;;;;5.53;1.88;;;7.50;99.90;;;;;;5110845;28;20158;-74
2024/01/23 08:58:18;;;;;;;3.58;1.55;;;7.50;99.90;;;;;;5111973;28;20039;-75
2024/01/23 09:00:45;;;;;;;2.60;1.40;;;7.50;99.90;;;;;;5112132;28;20055;-73
2024/01/23 09:03:11;;;;;;;3.90;2.22;;;7.60;99.90;;;;;;5110295;28;20031;-74
2024/01/23 09:05:36;;;;;;;7.78;1.85;;;7.60;99.90;;;;;;5112129;28;20027;-73
2024/01/23 09:08:02;;;;;;;2.35;1.48;;;7.60;99.90;;;;;;5111727;28;20421;-73
2024/01/23 09:10:28;;;;;;;4.05;1.48;;;7.60;99.90;;;;;;5110600;28;20077;-74
2024/01/23 09:12:53;;;;;;;2.85;1.38;;;7.60;99.90;;;;;;5112104;28;20531;-74
2024/01/23 09:15:19;;;;;;;4.30;1.58;;;7.70;99.90;;;;;;5111348;28;20364;-74
2024/01/23 09:17:45;;;;;;;5.10;1.58;;;7.60;99.90;;;;;;5111566;28;20028;-74
2024/01/23 09:20:11;;;;;;;4.50;1.17;;;7.60;99.90;;;;;;5111402;28;20027;-74
2024/01/23 09:22:37;;;;;;;3.47;1.20;;;7.60;99.90;;;;;;5111851;28;20028;-74
2024/01/23 09:25:05;;;;;;;5.18;1.35;;;7.70;99.90;;;;;;5111417;28;20035;-73
2024/01/23 09:27:30;;;;;;;4.95;1.10;;;7.70;99.90;;;;;;5111814;28;20039;-73
2024/01/23 09:29:56;;;;;;;3.72;1.45;;;7.70;99.90;;;;;;5111724;28;20464;-74
2024/01/23 09:32:22;;;;;;;3.83;1.15;;;7.70;99.90;;;;;;5107380;28;20031;-73
2024/01/23 09:34:47;;;;;;;3.70;1.23;;;7.80;99.90;;;;;;5091015;28;20036;-74
2024/01/23 09:37:13;;;;;;;3.15;1.30;;;7.80;99.90;;;;;;5089476;28;20031;-74
2024/01/23 09:39:39;;;;;;;4.95;1.17;;;7.80;99.90;;;;;;5091217;28;20035;-75
2024/01/23 09:42:08;;;;;;;2.00;0.93;;;7.90;99.90;;;;;;5091666;28;20017;-75
2024/01/23 09:44:35;;;;;;;4.72;0.95;;;7.90;99.70;;;;;;5094342;28;20032;-75
2024/01/23 09:47:03;;;;;;;5.07;0.90;;;8.00;99.50;;;;;;5095805;28;20036;-74
2024/01/23 09:49:30;;;;;;;4.03;1.17;;;8.00;99.60;;;;;;5093648;28;20405;-74
2024/01/23 09:52:02;;;;;;;2.85;1.50;;;8.10;99.20;;;;;;5093335;28;20024;-74
2024/01/23 09:54:30;;;;;;;4.43;1.45;;;8.20;98.90;;;;;;5095176;28;20476;-74
2024/01/23 09:56:57;;;;;;;2.40;1.20;;;8.30;98.60;;;;;;5094769;28;20442;-74
2024/01/23 09:59:23;;;;;;;2.65;1.30;;;8.40;97.70;;;;;;5092829;28;20016;-74
2024/01/23 10:01:48;;;;;;;4.45;1.25;;;8.50;97.40;;;;;;5094771;28;20031;-74
2024/01/23 10:04:17;;;;;;;2.05;1.00;;;8.50;97.10;;;;;;5094514;28;20028;-74
2024/01/23 10:06:43;;;;;;;4.47;1.30;;;8.50;96.90;;;;;;5093488;28;20118;-74
2024/01/23 10:09:09;;;;;;;3.83;1.50;;;8.50;97.00;;;;;;5092999;28;20524;-74
2024/01/23 10:11:35;;;;;;;5.57;1.13;;;8.50;97.00;;;;;;5094715;28;20024;-73
2024/01/23 10:14:06;;;;;;;6.47;1.13;;;8.50;96.70;;;;;;5094400;28;20040;-73
2024/01/23 10:16:31;;;;;;;3.75;1.10;;;8.50;96.50;;;;;;5094945;28;20058;-73
2024/01/23 10:18:57;;;;;;;2.83;1.20;;;8.50;96.50;;;;;;5094653;28;20028;-73
2024/01/23 10:21:23;;;;;;;3.30;1.23;;;8.50;96.40;;;;;;5104606;28;20019;-74
2024/01/23 10:23:52;;;;;;;7.88;1.70;;;8.60;96.60;;;;;;5114653;28;20020;-74
2024/01/23 10:26:19;;;;;;;3.05;1.40;;;8.60;96.50;;;;;;5113062;28;20031;-73
2024/01/23 10:28:46;;;;;;;5.68;1.52;;;8.60;96.70;;;;;;5114526;28;20055;-74
2024/01/23 10:31:12;;;;;;;4.72;1.30;;;8.70;96.00;;;;;;5114305;28;20511;-74
2024/01/23 10:33:39;;;;;;;4.47;1.25;;;8.70;95.80;;;;;;5114521;28;20106;-73
2024/01/23 10:36:08;;;;;;;6.00;2.10;;;8.80;95.70;;;;;;5114276;28;20102;-74
2024/01/23 10:38:37;;;;;;;3.13;1.35;;;8.90;95.50;;;;;;5114760;28;20295;-73
2024/01/23 10:41:07;;;;;;;4.45;1.40;;;9.00;95.30;;;;;;5114394;28;20486;-74
2024/01/23 10:43:36;;;;;;;2.10;1.10;;;9.00;94.70;;;;;;5114566;28;20023;-73
2024/01/23 10:46:05;;;;;;;3.40;1.10;;;9.10;94.20;;;;;;5113094;28;20032;-73
2024/01/23 10:48:31;;;;;;;4.53;1.35;;;9.20;94.20;;;;;;5114034;28;20023;-74
2024/01/23 10:51:08;;;;;;;3.35;1.10;;;9.30;94.30;;;;;;5114376;28;20034;-74
2024/01/23 10:53:57;;;;;;;4.25;1.38;;;9.30;93.10;;;;;;5114261;28;20020;-73
2024/01/23 10:56:23;;;;;;;2.83;1.27;;;9.30;93.10;;;;;;5112566;28;20169;-73
2024/01/23 10:59:07;;;;;;;8.35;1.50;;;9.40;93.20;;;;;;5112911;28;20039;-73
2024/01/23 11:01:36;;;;;;;1.83;0.85;;;9.40;93.00;;;;;;5114232;28;20047;-74
2024/01/23 11:04:02;;;;;;;3.13;1.02;;;9.50;92.60;;;;;;5114265;28;20027;-74
2024/01/23 11:06:34;;;;;;;2.72;1.10;;;9.60;92.10;;;;;;5113108;28;20404;-73
2024/01/23 11:09:08;;;;;;;2.97;1.40;;;9.60;92.00;;;;;;5114207;28;20023;-74
2024/01/23 11:11:58;;;;;;;2.40;1.00;;;9.70;91.70;;;;;;5115642;28;20480;-74
2024/01/23 11:14:29;;;;;;;3.83;1.00;;;9.70;91.10;;;;;;5114218;28;20040;-74
2024/01/23 11:17:21;;;;;;;2.35;1.50;;;9.70;90.70;;;;;;5114408;28;20490;-74
2024/01/23 11:19:47;;;;;;;3.10;1.00;;;9.70;90.70;;;;;;5111319;28;20043;-73
2024/01/23 11:22:21;;;;;;;2.03;1.00;;;9.70;90.60;;;;;;5113097;28;20348;-75
2024/01/23 11:24:48;;;;;;;3.45;1.20;;;9.60;90.10;;;;;;5111357;28;20085;-73
2024/01/23 11:27:25;;;;;;;3.20;0.93;;;9.60;90.10;;;;;;5092735;28;20046;-74
2024/01/23 11:29:52;;;;;;;2.85;1.20;;;9.40;88.80;;;;;;5093088;28;20024;-74
2024/01/23 11:32:19;;;;;;;1.65;0.90;;;9.40;89.50;;;;;;5092796;28;20019;-74
2024/01/23 11:34:45;;;;;;;4.45;1.30;;;9.30;89.40;;;;;;5093074;28;20388;-73
2024/01/23 11:37:43;;;;;;;4.25;1.13;;;9.20;89.70;;;;;;5092757;28;20039;-74
2024/01/23 11:40:24;;;;;;;2.03;1.00;;;9.10;90.40;;;;;;5091537;28;20441;-73
2024/01/23 11:42:50;;;;;;;3.28;1.00;;;9.00;90.80;;;;;;5091728;28;20119;-73
2024/01/23 11:45:27;;;;;;;5.93;1.20;;;8.90;91.50;;;;;;5092135;28;20110;-74
2024/01/23 11:48:00;;;;;;;3.85;1.27;;;8.80;92.60;;;;;;5092545;28;20154;-73
2024/01/23 11:50:27;;;;;;;2.97;0.80;;;8.60;93.70;;;;;;5091053;28;20479;-73
2024/01/23 11:52:54;;;;;;;4.75;1.60;;;8.40;94.80;;;;;;5092529;28;20028;-74
2024/01/23 11:55:20;;;;;;;2.13;0.80;;;8.30;95.80;;;;;;5092288;28;20032;-74
2024/01/23 11:58:04;;;;;;;3.33;1.13;;;8.20;96.40;;;;;;5092807;28;20032;-74
2024/01/23 12:00:30;;;;;;;5.00;2.05;;;8.10;96.80;;;;;;5090397;28;20139;-74
2024/01/23 12:02:56;;;;;;;7.57;2.38;;;8.00;97.50;;;;;;5092579;28;20107;-73
2024/01/23 12:05:22;;;;;;;5.85;1.33;;;7.90;98.50;;;;;;5092415;28;20436;-73
2024/01/23 12:07:48;;;;;;;5.28;1.10;;;7.80;99.40;;;;;;5091946;28;20027;-75
2024/01/23 12:10:16;;;;;;;3.70;1.20;;;7.70;99.80;;;;;;5091493;28;20020;-73
2024/01/23 12:12:42;;;;;;;2.67;1.20;;;7.60;99.90;;;;;;5092415;28;20065;-73
2024/01/23 12:15:09;;;;;;;3.95;1.05;;;7.40;99.90;;;;;;5091958;28;20477;-74
2024/01/23 12:17:35;;;;;;;2.97;1.27;;;7.30;99.90;;;;;;5091988;28;20418;-73
2024/01/23 12:20:09;;;;;;;4.40;1.33;;;7.20;99.90;;;;;;5101630;28;20095;-73
2024/01/23 12:22:38;;;;;;;3.65;1.80;;;7.20;99.90;;;;;;5110682;28;20027;-74
2024/01/23 12:25:05;;;;;;;4.82;2.25;;;7.10;99.90;;;;;;5112135;28;20032;-73
2024/01/23 12:27:31;;;;;;;3.47;1.70;;;7.00;99.90;;;;;;5110856;28;20119;-73
2024/01/23 12:30:01;;;;;;;7.97;2.17;;;7.00;99.90;;;;;;5112132;28;20099;-74
2024/01/23 12:32:27;;;;;;;4.35;1.50;;;7.00;99.90;;;;;;5110594;28;20072;-74
2024/01/23 12:34:54;;;;;;;3.40;1.48;;;6.90;99.90;;;;;;5112252;28;20106;-73
2024/01/23 12:37:28;;;;;;;2.75;1.23;;;6.90;99.90;;;;;;5111931;28;20039;-74
2024/01/23 12:39:54;;;;;;;5.85;1.27;;;6.90;99.90;;;;;;5112459;28;20368;-76
2024/01/23 12:42:19;;;;;;;3.65;1.40;;;7.00;99.90;;;;;;5110632;28;20020;-74
2024/01/23 12:44:45;;;;;;;4.00;1.58;;;7.00;99.90;;;;;;5112586;28;20034;-73